Axtell, Nebraska
Current Conditions -  °F | °C
As of 1:15 PM on Tuesday 21 Oct 2014 (Local Time) from KHDE Reporting Station
Clear Clear  
Wind Chill: 71°   Ceiling: Unl
Heat Index: 71°   Visibility: 10mi
Dew Point: 47°   Wind: 18mph
Humidity: 43%   Direction: 170°S
Pressure: 30.04"   Gusts: 25mph
Location:  40.48°N, 99.13°W
Report Text: KHDE 211815Z AUTO 17016G22KT 10SM CLR 22/08 A3004 RMK AO2 T02150084
Loading
Personal Weather Stations






























Interactive Weather Map
Tropical Storm Tracking
New forecast layout! Learn more

10-Day Weather Forecast

Advertisements
Track Severe Weather on mobile